Time;durP1;ratioP1;P1;durP2;ratioP2;P2;SDS_P1;SDS_P2;PMS_P1;PMS_P2;Temp;Humidity;BMP_temperature;BMP_pressure;BME280_temperature;BME280_humidity;BME280_pressure;Samples;Min_cycle;Max_cycle;Signal;HPM_P1;HPM_P2
2021/06/13 00:00:39;;;;;;;;;;;13.80;97.30;;;;;;5135174;27;19907;-61
2021/06/13 00:03:05;;;;;;;;;;;13.80;97.50;;;;;;5135060;27;19954;-61
2021/06/13 00:05:31;;;;;;;;;;;13.80;97.50;;;;;;5135297;27;19919;-61
2021/06/13 00:07:57;;;;;;;;;;;13.70;97.50;;;;;;5135097;27;20012;-61
2021/06/13 00:10:23;;;;;;;;;;;13.80;97.50;;;;;;5134452;27;20356;-61
2021/06/13 00:12:49;;;;;;;;;;;13.70;97.70;;;;;;5134634;27;19911;-61
2021/06/13 00:15:22;;;;;;;;;;;13.70;97.80;;;;;;5135148;27;19912;-61
2021/06/13 00:17:48;;;;;;;;;;;13.60;98.00;;;;;;5134482;27;19904;-61
2021/06/13 00:20:15;;;;;;;;;;;13.60;98.00;;;;;;5134627;27;19919;-61
2021/06/13 00:22:41;;;;;;;;;;;13.60;98.10;;;;;;5133778;27;19918;-62
2021/06/13 00:25:07;;;;;;;;;;;13.60;98.30;;;;;;5134698;27;20302;-61
2021/06/13 00:27:33;;;;;;;;;;;13.50;98.40;;;;;;5115886;27;19922;-61
2021/06/13 00:29:59;;;;;;;;;;;13.50;98.80;;;;;;5134517;27;19911;-61
2021/06/13 00:32:25;;;;;;;;;;;13.40;98.80;;;;;;5134427;27;20379;-61
2021/06/13 00:34:51;;;;;;;;;;;13.40;98.80;;;;;;5134528;27;19903;-61
2021/06/13 00:37:17;;;;;;;;;;;13.40;99.10;;;;;;5134475;27;19913;-61
2021/06/13 00:39:42;;;;;;;;;;;13.40;98.90;;;;;;5134594;27;19948;-61
2021/06/13 00:42:08;;;;;;;;;;;13.40;98.80;;;;;;5134235;27;20335;-61
2021/06/13 00:44:34;;;;;;;;;;;13.40;99.00;;;;;;5115792;27;19914;-61
2021/06/13 00:47:00;;;;;;;;;;;13.30;99.10;;;;;;5133864;27;19923;-61
2021/06/13 00:49:26;;;;;;;;;;;13.30;99.10;;;;;;5134140;27;19931;-61
2021/06/13 00:51:52;;;;;;;;;;;13.30;99.10;;;;;;5133923;27;19919;-61
2021/06/13 00:54:18;;;;;;;;;;;13.30;99.10;;;;;;5116208;27;19911;-62
2021/06/13 00:56:44;;;;;;;;;;;13.30;99.00;;;;;;5115392;27;19907;-61
2021/06/13 00:59:10;;;;;;;;;;;13.30;99.00;;;;;;5115348;27;20287;-61
2021/06/13 01:01:35;;;;;;;;;;;13.30;99.00;;;;;;5115610;27;19903;-61
2021/06/13 01:04:02;;;;;;;;;;;13.30;99.00;;;;;;5134001;27;19912;-61
2021/06/13 01:06:40;;;;;;;;;;;13.30;99.10;;;;;;5133537;27;20283;-61
2021/06/13 01:09:07;;;;;;;;;;;13.30;99.20;;;;;;5114922;28;19903;-61
2021/06/13 01:11:51;;;;;;;;;;;13.30;99.50;;;;;;5134415;27;20249;-61
2021/06/13 01:14:20;;;;;;;;;;;13.20;99.90;;;;;;5115132;28;19908;-60
2021/06/13 01:17:06;;;;;;;;;;;13.20;99.90;;;;;;5134048;27;19903;-61
2021/06/13 01:19:38;;;;;;;;;;;13.10;99.90;;;;;;5115930;27;19907;-60
2021/06/13 01:22:13;;;;;;;;;;;13.10;99.90;;;;;;5133928;28;19918;-60
2021/06/13 01:24:58;;;;;;;;;;;13.10;99.90;;;;;;5094954;28;19911;-60
2021/06/13 01:27:42;;;;;;;;;;;13.10;99.90;;;;;;5113484;28;19926;-61
2021/06/13 01:30:08;;;;;;;;;;;13.10;99.90;;;;;;5118507;28;19911;-60
2021/06/13 01:32:34;;;;;;;;;;;13.00;99.90;;;;;;5134292;28;19912;-60
2021/06/13 01:35:02;;;;;;;;;;;13.00;99.90;;;;;;5094134;28;19915;-60
2021/06/13 01:37:29;;;;;;;;;;;13.00;99.90;;;;;;5113547;28;19911;-61
2021/06/13 01:39:57;;;;;;;;;;;13.00;99.90;;;;;;5116929;28;19911;-60
2021/06/13 01:42:23;;;;;;;;;;;13.00;99.90;;;;;;5129472;27;19916;-59
2021/06/13 01:44:53;;;;;;;;;;;13.00;99.90;;;;;;5118819;27;19907;-61
2021/06/13 01:47:20;;;;;;;;;;;13.00;99.90;;;;;;5137898;27;20348;-60
2021/06/13 01:49:46;;;;;;;;;;;13.00;99.90;;;;;;5119595;27;19910;-60
2021/06/13 01:52:11;;;;;;;;;;;13.00;99.90;;;;;;5137545;27;19907;-60
2021/06/13 01:54:37;;;;;;;;;;;13.00;99.90;;;;;;5119052;27;19908;-60
2021/06/13 01:57:04;;;;;;;;;;;13.00;99.90;;;;;;5119521;27;19918;-60
2021/06/13 01:59:30;;;;;;;;;;;13.00;99.90;;;;;;5136950;27;19915;-60
2021/06/13 02:01:56;;;;;;;;;;;13.10;99.90;;;;;;5117672;27;19907;-60
2021/06/13 02:04:22;;;;;;;;;;;13.10;99.90;;;;;;5119535;27;20276;-59
2021/06/13 02:06:53;;;;;;;;;;;13.10;99.90;;;;;;5118791;27;19922;-60
2021/06/13 02:09:19;;;;;;;;;;;13.10;99.90;;;;;;5102188;27;19911;-60
2021/06/13 02:11:45;;;;;;;;;;;13.10;99.90;;;;;;5137753;27;20355;-60
2021/06/13 02:14:10;;;;;;;;;;;13.10;99.90;;;;;;5118940;27;19904;-60
2021/06/13 02:16:38;;;;;;;;;;;13.10;99.90;;;;;;5118908;27;20359;-61
2021/06/13 02:19:04;;;;;;;;;;;13.10;99.90;;;;;;5118644;27;19911;-60
2021/06/13 02:21:30;;;;;;;;;;;13.10;99.90;;;;;;5136905;27;20233;-60
2021/06/13 02:23:56;;;;;;;;;;;13.10;99.90;;;;;;5136172;27;19996;-61
2021/06/13 02:26:22;;;;;;;;;;;13.10;99.90;;;;;;5135942;27;19922;-60
2021/06/13 02:28:50;;;;;;;;;;;13.20;99.90;;;;;;5119060;27;19926;-60
2021/06/13 02:31:16;;;;;;;;;;;13.20;99.90;;;;;;5137207;27;20275;-60
2021/06/13 02:33:42;;;;;;;;;;;13.20;99.90;;;;;;5137546;27;19918;-60
2021/06/13 02:36:08;;;;;;;;;;;13.20;99.90;;;;;;5118288;27;19908;-60
2021/06/13 02:38:34;;;;;;;;;;;13.20;99.90;;;;;;5137100;27;19907;-60
2021/06/13 02:41:00;;;;;;;;;;;13.20;99.90;;;;;;5136652;27;19922;-60
2021/06/13 02:43:26;;;;;;;;;;;13.30;99.90;;;;;;5136557;27;19911;-60
2021/06/13 02:45:52;;;;;;;;;;;13.30;99.90;;;;;;5134661;27;19911;-60
2021/06/13 02:48:18;;;;;;;;;;;13.30;99.90;;;;;;5136852;27;20390;-60
2021/06/13 02:50:44;;;;;;;;;;;13.30;99.90;;;;;;5136536;27;19913;-59
2021/06/13 02:53:50;;;;;;;;;;;13.30;99.90;;;;;;5118306;27;19904;-60
2021/06/13 02:56:23;;;;;;;;;;;13.30;99.90;;;;;;5135541;27;19915;-60
2021/06/13 02:58:54;;;;;;;;;;;13.40;99.90;;;;;;5136110;27;19911;-60
2021/06/13 03:01:20;;;;;;;;;;;13.30;99.90;;;;;;5117746;27;19908;-60
2021/06/13 03:03:46;;;;;;;;;;;13.30;99.90;;;;;;5135675;27;19918;-60
2021/06/13 03:06:16;;;;;;;;;;;13.30;99.90;;;;;;5117417;27;20275;-61
2021/06/13 03:08:42;;;;;;;;;;;13.40;99.90;;;;;;5136202;27;19907;-60
2021/06/13 03:11:07;;;;;;;;;;;13.40;99.90;;;;;;5135062;27;20006;-60
2021/06/13 03:13:33;;;;;;;;;;;13.40;99.90;;;;;;5135736;27;20406;-61
2021/06/13 03:15:59;;;;;;;;;;;13.40;99.90;;;;;;5136116;27;19914;-60
2021/06/13 03:18:26;;;;;;;;;;;13.40;99.90;;;;;;5117666;27;19911;-60
2021/06/13 03:20:52;;;;;;;;;;;13.40;99.90;;;;;;5116729;27;19986;-60
2021/06/13 03:23:18;;;;;;;;;;;13.40;99.90;;;;;;5118145;27;19911;-60
2021/06/13 03:25:44;;;;;;;;;;;13.40;99.90;;;;;;5117595;27;19912;-60
2021/06/13 03:28:09;;;;;;;;;;;13.40;99.90;;;;;;5099493;27;19923;-60
2021/06/13 03:30:35;;;;;;;;;;;13.50;99.90;;;;;;5117070;27;19914;-60
2021/06/13 03:33:02;;;;;;;;;;;13.50;99.90;;;;;;5117571;27;19956;-60
2021/06/13 03:35:28;;;;;;;;;;;13.50;99.90;;;;;;5117544;27;19914;-60
2021/06/13 03:37:54;;;;;;;;;;;13.50;99.90;;;;;;5099826;27;19907;-60
2021/06/13 03:40:20;;;;;;;;;;;13.50;99.90;;;;;;5117055;27;19903;-59
2021/06/13 03:42:46;;;;;;;;;;;13.60;99.90;;;;;;5117459;27;20391;-59
2021/06/13 03:45:12;;;;;;;;;;;13.60;99.90;;;;;;5116694;27;19907;-61
2021/06/13 03:47:38;;;;;;;;;;;13.60;99.90;;;;;;5117548;27;19911;-60
2021/06/13 03:50:05;;;;;;;;;;;13.60;99.90;;;;;;5117131;27;20336;-60
2021/06/13 03:52:31;;;;;;;;;;;13.60;99.90;;;;;;5135650;27;19908;-59
2021/06/13 03:54:57;;;;;;;;;;;13.70;99.90;;;;;;5116316;27;19907;-60
2021/06/13 03:57:23;;;;;;;;;;;13.70;99.90;;;;;;5116191;27;19915;-60
2021/06/13 03:59:49;;;;;;;;;;;13.70;99.90;;;;;;5117143;27;19953;-59
2021/06/13 04:02:14;;;;;;;;;;;13.70;99.90;;;;;;5116131;27;20478;-60
2021/06/13 04:04:42;;;;;;;;;;;13.80;99.90;;;;;;5135395;27;19907;-59
2021/06/13 04:07:08;;;;;;;;;;;13.80;99.90;;;;;;5134914;27;19922;-60
2021/06/13 04:09:34;;;;;;;;;;;13.80;99.90;;;;;;5135073;27;19918;-60
2021/06/13 04:12:00;;;;;;;;;;;13.90;99.90;;;;;;5116515;27;19915;-60
2021/06/13 04:14:26;;;;;;;;;;;13.90;99.90;;;;;;5117104;27;19904;-60
2021/06/13 04:16:51;;;;;;;;;;;13.90;99.10;;;;;;5115720;27;20360;-60
2021/06/13 04:19:17;;;;;;;;;;;14.00;98.70;;;;;;5134310;27;19915;-59
2021/06/13 04:21:44;;;;;;;;;;;14.00;98.40;;;;;;5134098;27;19914;-60
2021/06/13 04:24:10;;;;;;;;;;;14.00;97.80;;;;;;5133757;27;19911;-60
2021/06/13 04:26:36;;;;;;;;;;;14.10;96.90;;;;;;5114754;27;20367;-61
2021/06/13 04:29:02;;;;;;;;;;;14.10;96.40;;;;;;5116209;27;19960;-61
2021/06/13 04:31:28;;;;;;;;;;;14.10;95.90;;;;;;5135185;27;19911;-60
2021/06/13 04:33:54;;;;;;;;;;;14.20;95.30;;;;;;5115715;27;20271;-61
2021/06/13 04:36:21;;;;;;;;;;;14.20;95.20;;;;;;5134183;27;20260;-61
2021/06/13 04:38:47;;;;;;;;;;;14.30;95.00;;;;;;5134797;27;19910;-58
2021/06/13 04:41:13;;;;;;;;;;;14.30;94.80;;;;;;5133816;27;20377;-60
2021/06/13 04:43:39;;;;;;;;;;;14.40;94.30;;;;;;5134753;27;19969;-60
2021/06/13 04:46:05;;;;;;;;;;;14.40;94.40;;;;;;5133745;27;19915;-60
2021/06/13 04:48:31;;;;;;;;;;;14.40;94.50;;;;;;5134482;27;19969;-60
2021/06/13 04:51:00;;;;;;;;;;;14.40;94.20;;;;;;5134546;27;20002;-59
2021/06/13 04:53:28;;;;;;;;;;;14.50;94.10;;;;;;5133002;27;19911;-59
2021/06/13 04:55:56;;;;;;;;;;;14.60;94.20;;;;;;5132899;27;19907;-60
2021/06/13 04:58:25;;;;;;;;;;;14.60;93.70;;;;;;5133919;27;19914;-60
2021/06/13 05:00:51;;;;;;;;;;;14.70;94.40;;;;;;5134472;27;19907;-60
2021/06/13 05:03:17;;;;;;;;;;;14.70;93.90;;;;;;5134064;27;19919;-60
2021/06/13 05:05:43;;;;;;;;;;;14.70;94.30;;;;;;5097189;27;19937;-60
2021/06/13 05:08:09;;;;;;;;;;;14.70;93.90;;;;;;5114895;27;19918;-60
2021/06/13 05:10:35;;;;;;;;;;;14.80;93.70;;;;;;5134152;27;19918;-60
2021/06/13 05:13:00;;;;;;;;;;;14.80;92.50;;;;;;5133360;27;20356;-60
2021/06/13 05:15:26;;;;;;;;;;;14.80;93.10;;;;;;5134063;27;19903;-60
2021/06/13 05:17:52;;;;;;;;;;;14.80;92.70;;;;;;5132951;27;19911;-60
2021/06/13 05:20:18;;;;;;;;;;;14.80;92.60;;;;;;5133412;28;19912;-60
2021/06/13 05:22:51;;;;;;;;;;;14.80;92.20;;;;;;5134070;28;19915;-60
2021/06/13 05:25:17;;;;;;;;;;;14.90;92.30;;;;;;5132774;28;19914;-61
2021/06/13 05:27:43;;;;;;;;;;;14.90;92.40;;;;;;5133171;28;19933;-62
2021/06/13 05:30:09;;;;;;;;;;;14.90;91.60;;;;;;5134047;28;19907;-62
2021/06/13 05:32:35;;;;;;;;;;;15.00;91.20;;;;;;5132822;28;19918;-61
2021/06/13 05:35:01;;;;;;;;;;;14.90;91.00;;;;;;5132297;28;20284;-60
2021/06/13 05:37:27;;;;;;;;;;;14.90;91.00;;;;;;5133980;28;19914;-60
2021/06/13 05:39:53;;;;;;;;;;;15.00;90.70;;;;;;5133863;28;19915;-61
2021/06/13 05:42:19;;;;;;;;;;;15.00;90.70;;;;;;5132815;28;19926;-59
2021/06/13 05:44:44;;;;;;;;;;;15.00;91.20;;;;;;5128735;28;20391;-61
2021/06/13 05:47:10;;;;;;;;;;;15.10;90.70;;;;;;5132870;28;19926;-59
2021/06/13 05:49:36;;;;;;;;;;;15.20;90.60;;;;;;5133414;28;19917;-60
2021/06/13 05:52:02;;;;;;;;;;;15.20;90.00;;;;;;5132918;28;19934;-61
2021/06/13 05:54:28;;;;;;;;;;;15.30;90.30;;;;;;5129064;28;19918;-60
2021/06/13 05:56:54;;;;;;;;;;;15.30;90.20;;;;;;5123794;28;19964;-60
2021/06/13 05:59:20;;;;;;;;;;;15.40;90.40;;;;;;5111235;28;19908;-60
2021/06/13 06:01:46;;;;;;;;;;;15.40;89.40;;;;;;5128471;28;19911;-59
2021/06/13 06:04:12;;;;;;;;;;;15.40;90.00;;;;;;5132610;28;20329;-59
2021/06/13 06:06:38;;;;;;;;;;;15.40;89.40;;;;;;5131402;28;19912;-62
2021/06/13 06:09:04;;;;;;;;;;;15.40;89.90;;;;;;5132507;28;19907;-62
2021/06/13 06:11:30;;;;;;;;;;;15.50;90.40;;;;;;5131179;28;19918;-62
2021/06/13 06:13:55;;;;;;;;;;;15.60;90.30;;;;;;5133229;28;19912;-62
2021/06/13 06:16:23;;;;;;;;;;;15.70;90.00;;;;;;5133927;28;19923;-61
2021/06/13 06:18:49;;;;;;;;;;;15.70;88.60;;;;;;5131211;28;20283;-60
2021/06/13 06:21:15;;;;;;;;;;;15.70;88.30;;;;;;5132325;28;19911;-60
2021/06/13 06:23:41;;;;;;;;;;;15.70;89.20;;;;;;5132805;27;19922;-61
2021/06/13 06:26:07;;;;;;;;;;;15.70;88.00;;;;;;5155554;27;19907;-61
2021/06/13 06:28:32;;;;;;;;;;;15.80;89.10;;;;;;5155771;27;19911;-60
2021/06/13 06:30:58;;;;;;;;;;;15.80;90.10;;;;;;5156780;27;19907;-60
2021/06/13 06:33:30;;;;;;;;;;;15.90;90.00;;;;;;5157158;27;19919;-61
2021/06/13 06:35:56;;;;;;;;;;;16.00;89.40;;;;;;5156410;27;19930;-61
2021/06/13 06:38:22;;;;;;;;;;;16.00;88.60;;;;;;5156607;27;19969;-61
2021/06/13 06:40:48;;;;;;;;;;;16.00;88.50;;;;;;5156787;27;19923;-61
2021/06/13 06:43:14;;;;;;;;;;;16.00;89.20;;;;;;5157092;27;19921;-61
2021/06/13 06:45:40;;;;;;;;;;;16.00;89.90;;;;;;5157685;27;19906;-62
2021/06/13 06:48:06;;;;;;;;;;;16.10;88.40;;;;;;5157476;27;19922;-61
2021/06/13 06:50:32;;;;;;;;;;;16.10;89.00;;;;;;5157562;27;19907;-61
2021/06/13 06:52:58;;;;;;;;;;;16.20;90.00;;;;;;5157621;27;19907;-61
2021/06/13 06:55:24;;;;;;;;;;;16.20;88.50;;;;;;5157361;27;19914;-61
2021/06/13 06:57:50;;;;;;;;;;;16.10;88.60;;;;;;5157489;27;20275;-62
2021/06/13 07:00:16;;;;;;;;;;;16.10;88.80;;;;;;5157297;27;19959;-61
2021/06/13 07:02:42;;;;;;;;;;;16.00;87.40;;;;;;5139060;27;20376;-62
2021/06/13 07:05:08;;;;;;;;;;;16.10;88.00;;;;;;5157454;27;19907;-62
2021/06/13 07:07:34;;;;;;;;;;;16.10;87.60;;;;;;5157535;27;19919;-62
2021/06/13 07:10:00;;;;;;;;;;;16.10;87.80;;;;;;5138721;27;20393;-61
2021/06/13 07:12:27;;;;;;;;;;;16.20;88.70;;;;;;5156554;27;19907;-61
2021/06/13 07:14:53;;;;;;;;;;;16.30;88.00;;;;;;5120526;27;19910;-61
2021/06/13 07:17:19;;;;;;;;;;;16.40;88.20;;;;;;5156960;27;19907;-60
2021/06/13 07:19:45;;;;;;;;;;;16.50;88.70;;;;;;5138491;27;19907;-61
2021/06/13 07:22:10;;;;;;;;;;;16.60;87.10;;;;;;5156837;27;19907;-61
2021/06/13 07:24:36;;;;;;;;;;;16.70;88.20;;;;;;5156514;27;19911;-61
2021/06/13 07:27:02;;;;;;;;;;;16.70;86.80;;;;;;5156939;27;19907;-61
2021/06/13 07:29:28;;;;;;;;;;;16.80;87.90;;;;;;5156529;27;19907;-62
2021/06/13 07:31:54;;;;;;;;;;;17.10;86.80;;;;;;5138101;27;19925;-62
2021/06/13 07:34:20;;;;;;;;;;;17.00;85.40;;;;;;5156542;27;19907;-62
2021/06/13 07:36:46;;;;;;;;;;;16.90;85.80;;;;;;5155577;27;20402;-62
2021/06/13 07:39:12;;;;;;;;;;;16.80;84.70;;;;;;5156532;27;19914;-62
2021/06/13 07:41:38;;;;;;;;;;;16.80;87.90;;;;;;5156562;27;19915;-62
2021/06/13 07:44:04;;;;;;;;;;;17.00;87.10;;;;;;5156636;27;19910;-62
2021/06/13 07:46:31;;;;;;;;;;;16.90;84.80;;;;;;5156217;27;19903;-62
2021/06/13 07:48:57;;;;;;;;;;;16.80;84.30;;;;;;5156474;27;19918;-62
2021/06/13 07:51:23;;;;;;;;;;;16.80;84.90;;;;;;5156291;27;19911;-61
2021/06/13 07:53:49;;;;;;;;;;;16.80;85.60;;;;;;5156434;27;19907;-62
2021/06/13 07:56:15;;;;;;;;;;;17.00;85.30;;;;;;5156099;27;19907;-62
2021/06/13 07:58:41;;;;;;;;;;;17.20;84.80;;;;;;5156257;27;19907;-62
2021/06/13 08:01:06;;;;;;;;;;;17.50;84.60;;;;;;5136964;27;19907;-60
2021/06/13 08:03:32;;;;;;;;;;;17.40;83.50;;;;;;5156322;27;19911;-61
2021/06/13 08:05:58;;;;;;;;;;;17.40;83.40;;;;;;5156296;27;19907;-61
2021/06/13 08:08:24;;;;;;;;;;;17.30;85.20;;;;;;5155293;27;19919;-61
2021/06/13 08:10:50;;;;;;;;;;;17.50;84.60;;;;;;5155226;27;20359;-61
2021/06/13 08:13:17;;;;;;;;;;;17.60;82.10;;;;;;5155923;27;19907;-62
2021/06/13 08:15:43;;;;;;;;;;;17.30;82.10;;;;;;5155992;27;19907;-62
2021/06/13 08:18:09;;;;;;;;;;;17.20;82.20;;;;;;5137259;27;19907;-60
2021/06/13 08:20:35;;;;;;;;;;;17.10;82.70;;;;;;5155628;27;19911;-61
2021/06/13 08:23:00;;;;;;;;;;;17.30;82.10;;;;;;5155844;27;20301;-61
2021/06/13 08:25:26;;;;;;;;;;;17.50;83.00;;;;;;5136992;27;20347;-62
2021/06/13 08:27:55;;;;;;;;;;;17.90;84.20;;;;;;5155793;27;19915;-63
2021/06/13 08:30:21;;;;;;;;;;;17.90;80.30;;;;;;5155513;27;19907;-61
2021/06/13 08:32:47;;;;;;;;;;;18.10;80.10;;;;;;5155775;27;20251;-62
2021/06/13 08:35:13;;;;;;;;;;;18.20;78.60;;;;;;5155383;27;19907;-62
2021/06/13 08:37:39;;;;;;;;;;;18.40;78.10;;;;;;5155746;27;19903;-62
2021/06/13 08:40:06;;;;;;;;;;;19.10;78.60;;;;;;5155583;27;19910;-61
2021/06/13 08:42:31;;;;;;;;;;;19.90;75.50;;;;;;5135914;27;19922;-62
2021/06/13 08:44:57;;;;;;;;;;;20.30;73.00;;;;;;5154907;27;19907;-62
2021/06/13 08:47:23;;;;;;;;;;;20.90;70.60;;;;;;5154768;27;19907;-62
2021/06/13 08:49:49;;;;;;;;;;;21.00;68.40;;;;;;5154951;27;19953;-61
2021/06/13 08:52:15;;;;;;;;;;;20.60;65.60;;;;;;5154443;27;19907;-62
2021/06/13 08:54:41;;;;;;;;;;;20.70;69.20;;;;;;5154469;27;20302;-61
2021/06/13 08:57:07;;;;;;;;;;;20.50;64.80;;;;;;5155177;27;19907;-61
2021/06/13 08:59:33;;;;;;;;;;;20.50;66.60;;;;;;5155067;27;20382;-61
2021/06/13 09:02:00;;;;;;;;;;;20.30;66.00;;;;;;5154699;27;19907;-61
2021/06/13 09:04:26;;;;;;;;;;;21.20;65.70;;;;;;5154890;27;20370;-63
2021/06/13 09:06:52;;;;;;;;;;;21.00;63.90;;;;;;5155050;27;19907;-62
2021/06/13 09:09:18;;;;;;;;;;;21.10;60.80;;;;;;5154673;27;19924;-62
2021/06/13 09:11:56;;;;;;;;;;;21.10;61.50;;;;;;5155226;27;20374;-61
2021/06/13 09:14:21;;;;;;;;;;;21.00;62.90;;;;;;5154805;27;19903;-62
2021/06/13 09:16:47;;;;;;;;;;;21.10;61.20;;;;;;5154960;27;20244;-63
2021/06/13 09:19:13;;;;;;;;;;;21.10;61.70;;;;;;5155028;27;19907;-63
2021/06/13 09:21:40;;;;;;;;;;;20.80;63.20;;;;;;5153805;27;19910;-61
2021/06/13 09:24:15;;;;;;;;;;;20.90;63.00;;;;;;5153949;27;19907;-63
2021/06/13 09:26:41;;;;;;;;;;;21.20;62.90;;;;;;5154841;27;19907;-61
2021/06/13 09:29:07;;;;;;;;;;;21.50;62.70;;;;;;5154916;27;19922;-62
2021/06/13 09:31:36;;;;;;;;;;;21.80;61.60;;;;;;5154632;27;19914;-63
2021/06/13 09:34:02;;;;;;;;;;;22.30;61.70;;;;;;5153958;27;19911;-62
2021/06/13 09:36:31;;;;;;;;;;;22.70;59.00;;;;;;5136117;27;19957;-61
2021/06/13 09:39:01;;;;;;;;;;;23.10;58.90;;;;;;5154730;27;19903;-62
2021/06/13 09:41:27;;;;;;;;;;;23.30;55.80;;;;;;5154251;27;20363;-62
2021/06/13 09:44:02;;;;;;;;;;;22.30;58.70;;;;;;5153836;27;20264;-62
2021/06/13 09:46:29;;;;;;;;;;;22.10;58.90;;;;;;5136026;27;19910;-62
2021/06/13 09:48:59;;;;;;;;;;;20.50;59.60;;;;;;5154600;27;19918;-62
2021/06/13 09:51:25;;;;;;;;;;;20.80;62.70;;;;;;5135508;27;19907;-62
2021/06/13 09:53:52;;;;;;;1.02;0.47;;;21.10;61.40;;;;;;5154404;27;20596;-63
2021/06/13 09:56:28;;;;;;;2.08;0.50;;;21.30;62.10;;;;;;5153920;27;20155;-62
2021/06/13 09:59:02;;;;;;;1.52;0.40;;;21.60;60.80;;;;;;5154639;27;20630;-63
2021/06/13 10:01:41;;;;;;;3.22;0.47;;;21.20;59.70;;;;;;5158087;27;20262;-61
2021/06/13 10:04:29;;;;;;;1.73;0.55;;;21.30;59.10;;;;;;5158116;27;20518;-63
2021/06/13 10:06:56;;;;;;;2.30;0.50;;;20.80;59.80;;;;;;5158283;27;20178;-63
2021/06/13 10:09:23;;;;;;;1.92;0.57;;;20.50;61.40;;;;;;5138797;27;20219;-64
2021/06/13 10:11:50;;;;;;;5.30;0.85;;;21.20;61.20;;;;;;5158219;27;20170;-62
2021/06/13 10:14:17;;;;;;;2.55;0.73;;;21.40;58.90;;;;;;5157966;27;20190;-62
2021/06/13 10:16:49;;;;;;;3.35;0.50;;;21.70;58.20;;;;;;5138595;27;20179;-62
2021/06/13 10:19:19;;;;;;;3.22;0.70;;;21.50;59.50;;;;;;5157908;27;20167;-62
2021/06/13 10:21:47;;;;;;;2.00;0.65;;;21.80;58.40;;;;;;5157984;27;20194;-63
2021/06/13 10:24:17;;;;;;;2.75;0.60;;;21.80;58.10;;;;;;5157715;27;20171;-62
2021/06/13 10:26:48;;;;;;;2.63;0.60;;;21.90;58.30;;;;;;5158053;27;20551;-62
2021/06/13 10:29:14;;;;;;;4.53;0.50;;;22.00;58.70;;;;;;5157743;27;20199;-62
2021/06/13 10:31:42;;;;;;;4.60;0.70;;;21.90;56.80;;;;;;5138997;27;20521;-62
2021/06/13 10:34:08;;;;;;;1.73;0.52;;;21.70;58.60;;;;;;5158055;27;20175;-62
2021/06/13 10:36:36;;;;;;;3.17;0.75;;;22.00;61.40;;;;;;5157285;27;20191;-62
2021/06/13 10:39:04;;;;;;;2.17;0.68;;;22.20;58.60;;;;;;5139414;27;20163;-62
2021/06/13 10:41:30;;;;;;;4.25;0.80;;;22.30;61.40;;;;;;5139028;27;20218;-62
2021/06/13 10:44:04;;;;;;;5.85;0.80;;;22.40;58.00;;;;;;5157658;27;20639;-62
2021/06/13 10:46:31;;;;;;;2.20;0.70;;;22.10;56.90;;;;;;5121874;27;20170;-62
2021/06/13 10:48:59;;;;;;;1.83;0.60;;;22.20;58.20;;;;;;5157453;27;20210;-62
2021/06/13 10:51:36;;;;;;;2.15;0.68;;;22.40;57.90;;;;;;5157069;27;20155;-62
2021/06/13 10:54:21;;;;;;;5.43;0.60;;;22.30;56.10;;;;;;5137864;27;20526;-62
2021/06/13 10:56:51;;;;;;;2.33;0.45;;;22.00;60.00;;;;;;5157429;27;20171;-62
2021/06/13 10:59:18;;;;;;;2.03;0.50;;;22.20;57.90;;;;;;5157074;27;20166;-62
2021/06/13 11:02:08;;;;;;;2.40;0.70;;;21.40;56.00;;;;;;5156778;27;20167;-62
2021/06/13 11:04:43;;;;;;;4.07;0.70;;;21.20;60.40;;;;;;5156819;27;20272;-62
2021/06/13 11:12:40;;;;;;;;;;;21.50;60.00;;;;;;5157146;27;20031;-62
2021/06/13 11:15:07;;;;;;;;;;;20.90;59.20;;;;;;5156754;27;19903;-62
2021/06/13 11:17:51;;;;;;;;;;;21.10;60.40;;;;;;5137810;27;19911;-62
2021/06/13 11:20:31;;;;;;;;;;;21.30;59.70;;;;;;5157095;27;19903;-62
2021/06/13 11:22:57;;;;;;;;;;;20.90;58.60;;;;;;5157319;27;19903;-62
2021/06/13 11:25:25;;;;;;;;;;;20.60;60.80;;;;;;5138401;27;19903;-62
2021/06/13 11:28:10;;;;;;;;;;;20.60;62.20;;;;;;5156862;27;19903;-63
2021/06/13 11:30:40;;;;;;;;;;;20.50;59.10;;;;;;5156127;27;19984;-63
2021/06/13 11:33:06;;;;;;;;;;;20.00;59.70;;;;;;5157055;27;20267;-63
2021/06/13 11:35:34;;;;;;;;;;;20.30;59.80;;;;;;5156095;27;19907;-63
2021/06/13 11:38:09;;;;;;;;;;;20.50;59.70;;;;;;5156737;27;20244;-62
2021/06/13 11:40:35;;;;;;;;;;;20.60;59.00;;;;;;5156236;27;19910;-62
2021/06/13 11:43:08;;;;;;;;;;;20.40;59.90;;;;;;5156839;27;19907;-63
2021/06/13 11:45:34;;;;;;;;;;;19.80;59.10;;;;;;5156360;27;20282;-63
2021/06/13 11:48:19;;;;;;;;;;;19.80;59.50;;;;;;5156489;27;19915;-63
2021/06/13 11:50:58;;;;;;;;;;;20.00;58.70;;;;;;5156284;27;19907;-63
2021/06/13 11:53:42;;;;;;;;;;;20.00;58.70;;;;;;5155784;27;19903;-63
2021/06/13 11:56:08;;;;;;;;;;;20.00;59.10;;;;;;5156340;27;20259;-62
2021/06/13 11:58:35;;;;;;;;;;;20.20;58.20;;;;;;5156064;27;19914;-62
2021/06/13 12:01:01;;;;;;;;;;;20.40;59.30;;;;;;5156476;27;19914;-62
2021/06/13 12:03:27;;;;;;;;;;;20.30;59.00;;;;;;5156345;27;19911;-62
2021/06/13 12:06:00;;;;;;;;;;;20.30;59.50;;;;;;5138092;27;19903;-63
2021/06/13 12:08:26;;;;;;;;;;;20.30;58.70;;;;;;5155960;27;19918;-63
2021/06/13 12:10:52;;;;;;;;;;;20.00;60.20;;;;;;5155638;27;19903;-62
2021/06/13 12:13:17;;;;;;;;;;;20.20;60.60;;;;;;5156079;27;19907;-62
2021/06/13 12:15:43;;;;;;;;;;;20.10;60.10;;;;;;5155707;27;19907;-62
2021/06/13 12:18:15;;;;;;;;;;;19.50;60.10;;;;;;5155794;27;20244;-61
2021/06/13 12:20:42;;;;;;;;;;;19.30;62.10;;;;;;5155679;27;19906;-62
2021/06/13 12:23:15;;;;;;;;;;;19.50;61.60;;;;;;5155187;27;19903;-62
2021/06/13 12:28:29;;;;;;;;;;;19.50;60.70;;;;;;5162058;27;19922;-62
2021/06/13 12:30:55;;;;;;;;;;;19.50;63.80;;;;;;5155850;27;19918;-62
2021/06/13 12:33:25;;;;;;;;;;;19.20;63.30;;;;;;5154565;27;19998;-62
2021/06/13 12:35:53;;;;;;;;;;;19.20;63.10;;;;;;5154905;27;19911;-61
2021/06/13 12:38:23;;;;;;;;;;;19.20;65.10;;;;;;5155643;27;20270;-61
2021/06/13 12:40:51;;;;;;;;;;;19.50;63.70;;;;;;5155094;27;20279;-60
2021/06/13 12:43:31;;;;;;;;;;;19.30;63.30;;;;;;5155003;27;19910;-61
2021/06/13 12:45:57;;;;;;;;;;;19.20;61.50;;;;;;5154437;27;19903;-60
2021/06/13 12:48:23;;;;;;;;;;;18.90;61.90;;;;;;5155402;27;19911;-62
2021/06/13 12:50:49;;;;;;;;;;;19.00;63.40;;;;;;5155082;27;19910;-62
2021/06/13 12:53:15;;;;;;;;;;;19.00;65.40;;;;;;5155268;27;20247;-61
2021/06/13 12:55:44;;;;;;;;;;;18.90;64.50;;;;;;5154920;27;19914;-62
2021/06/13 12:58:14;;;;;;;;;;;18.90;64.60;;;;;;5154244;27;19910;-61
2021/06/13 13:00:40;;;;;;;;;;;19.10;64.60;;;;;;5154854;27;20363;-62
2021/06/13 13:03:09;;;;;;;;;;;19.10;61.50;;;;;;5136620;27;19915;-61
2021/06/13 13:05:36;;;;;;;;;;;18.90;60.00;;;;;;5154844;27;19914;-60
2021/06/13 13:08:17;;;;;;;;;;;18.70;62.90;;;;;;5155221;27;19908;-61
2021/06/13 13:10:59;;;;;;;;;;;18.90;63.90;;;;;;5135637;27;20263;-63
2021/06/13 13:13:26;;;;;;;;;;;18.60;64.70;;;;;;5154555;27;19913;-62
2021/06/13 13:15:52;;;;;;;;;;;18.80;63.00;;;;;;5154686;27;19907;-63
2021/06/13 13:18:20;;;;;;;;;;;18.70;63.20;;;;;;5154954;27;19907;-61
2021/06/13 13:20:49;;;;;;;;;;;18.80;62.80;;;;;;5135251;27;19914;-62
2021/06/13 13:23:15;;;;;;;;;;;18.80;61.70;;;;;;5154882;27;19911;-61
2021/06/13 13:25:43;;;;;;;;;;;18.80;61.80;;;;;;5154636;27;19968;-62
2021/06/13 13:28:19;;;;;;;;;;;18.90;61.20;;;;;;5154737;27;20279;-62
2021/06/13 13:30:45;;;;;;;;;;;19.00;61.60;;;;;;5154619;27;20370;-62
2021/06/13 13:33:11;;;;;;;;;;;19.20;62.50;;;;;;5136430;27;19993;-62
2021/06/13 13:35:38;;;;;;;;;;;19.00;60.20;;;;;;5157913;27;19908;-62
2021/06/13 13:38:05;;;;;;;;;;;19.00;63.00;;;;;;5140034;27;19907;-62
2021/06/13 13:40:31;;;;;;;;;;;19.00;61.40;;;;;;5158977;27;19907;-62
2021/06/13 13:42:56;;;;;;;;;;;18.30;59.60;;;;;;5158317;27;19903;-62
2021/06/13 13:45:23;;;;;;;;;;;18.00;61.70;;;;;;5158953;27;19910;-62
2021/06/13 13:47:49;;;;;;;;;;;18.10;63.50;;;;;;5158717;27;19903;-62
2021/06/13 13:50:14;;;;;;;;;;;18.30;63.60;;;;;;5159013;27;19922;-62
2021/06/13 13:52:40;;;;;;;;;;;18.10;65.30;;;;;;5158503;27;19910;-62
2021/06/13 13:55:07;;;;;;;;;;;18.40;65.00;;;;;;5158780;27;19911;-63
2021/06/13 13:57:42;;;;;;;;;;;18.20;64.90;;;;;;5158498;27;19907;-62
2021/06/13 14:00:09;;;;;;;;;;;18.00;63.50;;;;;;5158692;27;19911;-63
2021/06/13 14:02:34;;;;;;;;;;;18.20;65.50;;;;;;5158488;27;19912;-63
2021/06/13 14:05:00;;;;;;;;;;;18.40;66.00;;;;;;5158484;27;19907;-62
2021/06/13 14:07:30;;;;;;;;;;;18.60;62.50;;;;;;5157974;27;20264;-62
2021/06/13 14:09:56;;;;;;;;;;;18.60;63.40;;;;;;5158078;27;19929;-62
2021/06/13 14:12:22;;;;;;;;;;;18.60;63.90;;;;;;5158421;27;20301;-62
2021/06/13 14:14:48;;;;;;;;;;;18.80;64.40;;;;;;5158104;27;19907;-62
2021/06/13 14:17:14;;;;;;;;;;;18.90;64.30;;;;;;5158206;27;19907;-62
2021/06/13 14:19:40;;;;;;;;;;;19.00;63.70;;;;;;5157227;27;19907;-62